Tessenderlo, Belgium
Current Conditions -  °F | °C
As of 3:49 PM on Wednesday 22 Oct 2014 (Local Time) from EBDT Reporting Station
Rain Showers Rain Showers  
Wind Chill: 52°   Ceiling: 5500
Heat Index: 52°   Visibility: 4mi
Dew Point: 46°   Wind: 9mph
Humidity: 82%   Direction: 310°NW
Pressure: 30.15"   Gusts: NA
Location:  51.07°N, 5.09°E
Report Text: EBDT 221349Z AUTO 31008KT 7000 -SHRA FEW020/// SCT039/// BKN055/// 11/08 Q1021 WHT
Loading
Personal Weather Stations






























Interactive Weather Map New forecast layout! Learn more

10-Day Weather Forecast

Advertisements
Track Severe Weather on mobile